sensor_id;sensor_type;location;lat;lon;timestamp;P1;durP1;ratioP1;P2;durP2;ratioP2
54157;SDS011;40065;49.894;10.358;2023-09-19T00:03:36;2.78;;;0.85;;
54157;SDS011;40065;49.894;10.358;2023-09-19T00:08:41;1.67;;;0.73;;
54157;SDS011;40065;49.894;10.358;2023-09-19T00:13:47;2.40;;;0.80;;
54157;SDS011;40065;49.894;10.358;2023-09-19T00:18:51;1.30;;;0.68;;
54157;SDS011;40065;49.894;10.358;2023-09-19T00:23:53;1.40;;;0.70;;
54157;SDS011;40065;49.894;10.358;2023-09-19T00:28:56;1.48;;;0.77;;
54157;SDS011;40065;49.894;10.358;2023-09-19T00:33:58;1.60;;;0.85;;
54157;SDS011;40065;49.894;10.358;2023-09-19T00:39:05;2.58;;;0.90;;
54157;SDS011;40065;49.894;10.358;2023-09-19T00:44:07;1.83;;;0.90;;
54157;SDS011;40065;49.894;10.358;2023-09-19T00:49:10;1.48;;;0.90;;
54157;SDS011;40065;49.894;10.358;2023-09-19T00:54:13;2.55;;;0.80;;
54157;SDS011;40065;49.894;10.358;2023-09-19T00:59:19;1.77;;;0.88;;
54157;SDS011;40065;49.894;10.358;2023-09-19T01:04:23;3.60;;;1.02;;
54157;SDS011;40065;49.894;10.358;2023-09-19T01:09:26;2.50;;;0.82;;
54157;SDS011;40065;49.894;10.358;2023-09-19T01:14:34;3.60;;;1.15;;
54157;SDS011;40065;49.894;10.358;2023-09-19T01:25:26;1.67;;;0.85;;
54157;SDS011;40065;49.894;10.358;2023-09-19T01:30:42;1.92;;;0.90;;
54157;SDS011;40065;49.894;10.358;2023-09-19T01:35:45;2.88;;;1.02;;
54157;SDS011;40065;49.894;10.358;2023-09-19T01:40:49;2.28;;;1.00;;
54157;SDS011;40065;49.894;10.358;2023-09-19T01:51:09;3.28;;;1.00;;
54157;SDS011;40065;49.894;10.358;2023-09-19T01:56:16;1.67;;;0.85;;
54157;SDS011;40065;49.894;10.358;2023-09-19T02:01:24;2.75;;;0.93;;
54157;SDS011;40065;49.894;10.358;2023-09-19T02:11:29;4.82;;;1.00;;
54157;SDS011;40065;49.894;10.358;2023-09-19T02:16:31;2.35;;;0.70;;
54157;SDS011;40065;49.894;10.358;2023-09-19T02:21:33;2.42;;;1.00;;
54157;SDS011;40065;49.894;10.358;2023-09-19T02:26:35;1.95;;;0.90;;
54157;SDS011;40065;49.894;10.358;2023-09-19T02:31:40;2.33;;;1.13;;
54157;SDS011;40065;49.894;10.358;2023-09-19T02:36:42;3.08;;;0.80;;
54157;SDS011;40065;49.894;10.358;2023-09-19T02:41:45;2.40;;;1.10;;
54157;SDS011;40065;49.894;10.358;2023-09-19T02:46:47;3.22;;;1.33;;
54157;SDS011;40065;49.894;10.358;2023-09-19T02:51:49;2.50;;;1.35;;
54157;SDS011;40065;49.894;10.358;2023-09-19T02:56:51;3.13;;;1.20;;
54157;SDS011;40065;49.894;10.358;2023-09-19T03:01:55;2.53;;;1.30;;
54157;SDS011;40065;49.894;10.358;2023-09-19T03:06:57;5.30;;;1.73;;
54157;SDS011;40065;49.894;10.358;2023-09-19T03:12:02;2.55;;;1.55;;
54157;SDS011;40065;49.894;10.358;2023-09-19T03:17:07;4.70;;;2.05;;
54157;SDS011;40065;49.894;10.358;2023-09-19T03:22:11;4.03;;;2.00;;
54157;SDS011;40065;49.894;10.358;2023-09-19T03:27:13;4.18;;;2.15;;
54157;SDS011;40065;49.894;10.358;2023-09-19T03:32:18;2.40;;;1.80;;
54157;SDS011;40065;49.894;10.358;2023-09-19T03:37:20;3.40;;;2.20;;
54157;SDS011;40065;49.894;10.358;2023-09-19T03:42:23;3.88;;;2.33;;
54157;SDS011;40065;49.894;10.358;2023-09-19T03:52:31;5.30;;;2.70;;
54157;SDS011;40065;49.894;10.358;2023-09-19T03:57:33;3.63;;;2.45;;
54157;SDS011;40065;49.894;10.358;2023-09-19T04:02:38;3.72;;;2.75;;
54157;SDS011;40065;49.894;10.358;2023-09-19T04:12:53;4.40;;;2.88;;
54157;SDS011;40065;49.894;10.358;2023-09-19T04:17:56;4.55;;;3.85;;
54157;SDS011;40065;49.894;10.358;2023-09-19T04:22:58;5.53;;;4.70;;
54157;SDS011;40065;49.894;10.358;2023-09-19T04:28:01;8.40;;;5.13;;
54157;SDS011;40065;49.894;10.358;2023-09-19T04:33:06;8.38;;;4.82;;
54157;SDS011;40065;49.894;10.358;2023-09-19T04:38:08;6.15;;;4.88;;
54157;SDS011;40065;49.894;10.358;2023-09-19T04:43:10;5.80;;;4.18;;
54157;SDS011;40065;49.894;10.358;2023-09-19T04:48:12;5.07;;;3.58;;
54157;SDS011;40065;49.894;10.358;2023-09-19T04:53:17;5.38;;;3.63;;
54157;SDS011;40065;49.894;10.358;2023-09-19T04:58:22;5.03;;;3.83;;
54157;SDS011;40065;49.894;10.358;2023-09-19T05:03:24;4.75;;;3.80;;
54157;SDS011;40065;49.894;10.358;2023-09-19T05:08:25;5.15;;;3.63;;
54157;SDS011;40065;49.894;10.358;2023-09-19T05:13:28;6.25;;;3.70;;
54157;SDS011;40065;49.894;10.358;2023-09-19T05:18:30;5.22;;;3.50;;
54157;SDS011;40065;49.894;10.358;2023-09-19T05:23:33;5.30;;;3.17;;
54157;SDS011;40065;49.894;10.358;2023-09-19T05:28:35;4.97;;;3.15;;
54157;SDS011;40065;49.894;10.358;2023-09-19T05:33:38;5.30;;;2.70;;
54157;SDS011;40065;49.894;10.358;2023-09-19T05:38:40;5.43;;;2.42;;
54157;SDS011;40065;49.894;10.358;2023-09-19T05:43:42;4.75;;;2.25;;
54157;SDS011;40065;49.894;10.358;2023-09-19T05:48:45;3.33;;;2.05;;
54157;SDS011;40065;49.894;10.358;2023-09-19T05:58:51;3.08;;;1.50;;
54157;SDS011;40065;49.894;10.358;2023-09-19T06:03:53;2.92;;;1.50;;
54157;SDS011;40065;49.894;10.358;2023-09-19T06:08:55;2.58;;;1.30;;
54157;SDS011;40065;49.894;10.358;2023-09-19T06:13:57;5.03;;;1.15;;
54157;SDS011;40065;49.894;10.358;2023-09-19T06:19:03;3.13;;;1.02;;
54157;SDS011;40065;49.894;10.358;2023-09-19T06:24:08;1.38;;;0.70;;
54157;SDS011;40065;49.894;10.358;2023-09-19T06:29:10;2.80;;;0.93;;
54157;SDS011;40065;49.894;10.358;2023-09-19T06:34:11;5.72;;;0.90;;
54157;SDS011;40065;49.894;10.358;2023-09-19T06:44:17;3.58;;;1.10;;
54157;SDS011;40065;49.894;10.358;2023-09-19T06:49:19;3.08;;;1.13;;
54157;SDS011;40065;49.894;10.358;2023-09-19T06:54:21;3.20;;;1.33;;
54157;SDS011;40065;49.894;10.358;2023-09-19T06:59:23;3.47;;;1.65;;
54157;SDS011;40065;49.894;10.358;2023-09-19T07:04:24;2.95;;;1.35;;
54157;SDS011;40065;49.894;10.358;2023-09-19T07:09:26;4.30;;;1.52;;
54157;SDS011;40065;49.894;10.358;2023-09-19T07:14:29;4.75;;;2.03;;
54157;SDS011;40065;49.894;10.358;2023-09-19T07:19:31;6.75;;;1.77;;
54157;SDS011;40065;49.894;10.358;2023-09-19T07:24:33;3.53;;;1.80;;
54157;SDS011;40065;49.894;10.358;2023-09-19T07:29:38;4.47;;;1.63;;
54157;SDS011;40065;49.894;10.358;2023-09-19T07:34:40;2.97;;;1.60;;
54157;SDS011;40065;49.894;10.358;2023-09-19T07:39:42;3.53;;;1.20;;
54157;SDS011;40065;49.894;10.358;2023-09-19T07:44:46;2.38;;;1.48;;
54157;SDS011;40065;49.894;10.358;2023-09-19T07:49:48;5.82;;;1.50;;
54157;SDS011;40065;49.894;10.358;2023-09-19T07:54:50;3.70;;;1.40;;
54157;SDS011;40065;49.894;10.358;2023-09-19T07:59:52;5.70;;;1.40;;
54157;SDS011;40065;49.894;10.358;2023-09-19T08:04:55;4.03;;;1.13;;
54157;SDS011;40065;49.894;10.358;2023-09-19T08:09:59;3.80;;;1.35;;
54157;SDS011;40065;49.894;10.358;2023-09-19T08:15:02;4.28;;;0.93;;
54157;SDS011;40065;49.894;10.358;2023-09-19T08:25:07;3.42;;;1.20;;
54157;SDS011;40065;49.894;10.358;2023-09-19T08:30:09;2.60;;;1.05;;
54157;SDS011;40065;49.894;10.358;2023-09-19T08:35:12;3.05;;;1.27;;
54157;SDS011;40065;49.894;10.358;2023-09-19T08:40:14;2.70;;;1.40;;
54157;SDS011;40065;49.894;10.358;2023-09-19T08:45:16;2.47;;;1.23;;
54157;SDS011;40065;49.894;10.358;2023-09-19T08:50:23;2.75;;;1.20;;
54157;SDS011;40065;49.894;10.358;2023-09-19T08:55:30;4.20;;;1.60;;
54157;SDS011;40065;49.894;10.358;2023-09-19T09:00:34;3.53;;;1.10;;
54157;SDS011;40065;49.894;10.358;2023-09-19T09:05:37;4.32;;;1.40;;
54157;SDS011;40065;49.894;10.358;2023-09-19T09:10:44;3.25;;;1.38;;
54157;SDS011;40065;49.894;10.358;2023-09-19T09:15:45;3.53;;;1.10;;
54157;SDS011;40065;49.894;10.358;2023-09-19T09:20:48;4.63;;;1.48;;
54157;SDS011;40065;49.894;10.358;2023-09-19T09:25:51;2.38;;;1.00;;
54157;SDS011;40065;49.894;10.358;2023-09-19T09:30:58;2.33;;;1.00;;
54157;SDS011;40065;49.894;10.358;2023-09-19T09:36:01;2.50;;;1.05;;
54157;SDS011;40065;49.894;10.358;2023-09-19T09:41:04;4.95;;;1.25;;
54157;SDS011;40065;49.894;10.358;2023-09-19T09:46:10;3.30;;;1.00;;
54157;SDS011;40065;49.894;10.358;2023-09-19T09:51:31;4.90;;;1.27;;
54157;SDS011;40065;49.894;10.358;2023-09-19T09:56:34;2.13;;;1.13;;
54157;SDS011;40065;49.894;10.358;2023-09-19T10:01:47;3.22;;;0.90;;
54157;SDS011;40065;49.894;10.358;2023-09-19T10:06:53;4.57;;;1.38;;
54157;SDS011;40065;49.894;10.358;2023-09-19T10:12:13;2.40;;;0.98;;
54157;SDS011;40065;49.894;10.358;2023-09-19T10:17:17;2.20;;;1.02;;
54157;SDS011;40065;49.894;10.358;2023-09-19T10:22:21;2.20;;;0.95;;
54157;SDS011;40065;49.894;10.358;2023-09-19T10:27:25;4.15;;;1.20;;
54157;SDS011;40065;49.894;10.358;2023-09-19T10:32:28;3.13;;;1.00;;
54157;SDS011;40065;49.894;10.358;2023-09-19T10:37:35;3.60;;;1.15;;
54157;SDS011;40065;49.894;10.358;2023-09-19T10:42:39;4.45;;;1.38;;
54157;SDS011;40065;49.894;10.358;2023-09-19T10:47:43;3.55;;;1.30;;
54157;SDS011;40065;49.894;10.358;2023-09-19T10:52:45;5.10;;;1.20;;
54157;SDS011;40065;49.894;10.358;2023-09-19T10:57:51;3.05;;;1.10;;
54157;SDS011;40065;49.894;10.358;2023-09-19T11:08:25;1.83;;;0.90;;
54157;SDS011;40065;49.894;10.358;2023-09-19T11:13:28;4.10;;;1.42;;
54157;SDS011;40065;49.894;10.358;2023-09-19T11:23:47;2.72;;;1.20;;
54157;SDS011;40065;49.894;10.358;2023-09-19T11:29:24;3.97;;;1.23;;
54157;SDS011;40065;49.894;10.358;2023-09-19T11:40:26;4.28;;;1.13;;
54157;SDS011;40065;49.894;10.358;2023-09-19T11:50:47;3.13;;;1.30;;
54157;SDS011;40065;49.894;10.358;2023-09-19T11:55:50;5.28;;;1.20;;
54157;SDS011;40065;49.894;10.358;2023-09-19T12:00:54;3.45;;;1.20;;
54157;SDS011;40065;49.894;10.358;2023-09-19T12:06:00;3.20;;;1.10;;
54157;SDS011;40065;49.894;10.358;2023-09-19T12:11:06;2.65;;;1.27;;
54157;SDS011;40065;49.894;10.358;2023-09-19T12:16:16;3.25;;;1.30;;
54157;SDS011;40065;49.894;10.358;2023-09-19T12:26:26;5.07;;;1.38;;
54157;SDS011;40065;49.894;10.358;2023-09-19T12:31:29;2.60;;;1.20;;
54157;SDS011;40065;49.894;10.358;2023-09-19T12:36:37;3.72;;;1.27;;
54157;SDS011;40065;49.894;10.358;2023-09-19T12:46:43;6.68;;;1.20;;
54157;SDS011;40065;49.894;10.358;2023-09-19T12:51:46;4.32;;;1.38;;
54157;SDS011;40065;49.894;10.358;2023-09-19T12:56:49;5.63;;;1.23;;
54157;SDS011;40065;49.894;10.358;2023-09-19T13:01:51;2.77;;;1.00;;
54157;SDS011;40065;49.894;10.358;2023-09-19T13:07:06;3.95;;;1.15;;
54157;SDS011;40065;49.894;10.358;2023-09-19T13:17:42;3.13;;;1.00;;
54157;SDS011;40065;49.894;10.358;2023-09-19T13:22:47;2.72;;;0.90;;
54157;SDS011;40065;49.894;10.358;2023-09-19T13:27:53;4.25;;;0.90;;
54157;SDS011;40065;49.894;10.358;2023-09-19T13:38:11;4.00;;;0.88;;
54157;SDS011;40065;49.894;10.358;2023-09-19T13:43:14;3.17;;;0.95;;
54157;SDS011;40065;49.894;10.358;2023-09-19T13:48:16;2.40;;;0.88;;
54157;SDS011;40065;49.894;10.358;2023-09-19T13:53:22;4.25;;;0.95;;
54157;SDS011;40065;49.894;10.358;2023-09-19T13:58:24;3.38;;;1.10;;
54157;SDS011;40065;49.894;10.358;2023-09-19T14:03:26;2.47;;;0.85;;
54157;SDS011;40065;49.894;10.358;2023-09-19T14:08:29;4.50;;;0.90;;
54157;SDS011;40065;49.894;10.358;2023-09-19T14:13:31;2.55;;;1.02;;
54157;SDS011;40065;49.894;10.358;2023-09-19T14:18:33;3.03;;;1.05;;
54157;SDS011;40065;49.894;10.358;2023-09-19T14:23:38;6.40;;;1.20;;
54157;SDS011;40065;49.894;10.358;2023-09-19T14:28:40;5.35;;;0.95;;
54157;SDS011;40065;49.894;10.358;2023-09-19T14:33:42;4.70;;;0.80;;
54157;SDS011;40065;49.894;10.358;2023-09-19T14:38:45;3.50;;;1.08;;
54157;SDS011;40065;49.894;10.358;2023-09-19T14:43:47;2.05;;;0.80;;
54157;SDS011;40065;49.894;10.358;2023-09-19T14:48:49;3.35;;;1.02;;
54157;SDS011;40065;49.894;10.358;2023-09-19T14:53:52;1.92;;;0.90;;
54157;SDS011;40065;49.894;10.358;2023-09-19T14:58:54;2.30;;;0.90;;
54157;SDS011;40065;49.894;10.358;2023-09-19T15:03:56;3.00;;;0.90;;
54157;SDS011;40065;49.894;10.358;2023-09-19T15:08:58;4.95;;;1.00;;
54157;SDS011;40065;49.894;10.358;2023-09-19T15:14:00;2.55;;;0.82;;
54157;SDS011;40065;49.894;10.358;2023-09-19T15:19:04;2.05;;;0.80;;
54157;SDS011;40065;49.894;10.358;2023-09-19T15:24:06;3.60;;;1.00;;
54157;SDS011;40065;49.894;10.358;2023-09-19T15:29:11;4.03;;;0.95;;
54157;SDS011;40065;49.894;10.358;2023-09-19T15:34:14;2.92;;;0.93;;
54157;SDS011;40065;49.894;10.358;2023-09-19T15:39:17;5.20;;;0.93;;
54157;SDS011;40065;49.894;10.358;2023-09-19T15:44:19;2.72;;;1.10;;
54157;SDS011;40065;49.894;10.358;2023-09-19T15:49:21;4.85;;;1.20;;
54157;SDS011;40065;49.894;10.358;2023-09-19T15:54:24;2.47;;;1.15;;
54157;SDS011;40065;49.894;10.358;2023-09-19T15:59:27;3.40;;;1.10;;
54157;SDS011;40065;49.894;10.358;2023-09-19T16:04:31;2.75;;;0.95;;
54157;SDS011;40065;49.894;10.358;2023-09-19T16:09:35;3.22;;;0.80;;
54157;SDS011;40065;49.894;10.358;2023-09-19T16:14:37;6.40;;;0.90;;
54157;SDS011;40065;49.894;10.358;2023-09-19T16:19:38;2.85;;;0.90;;
54157;SDS011;40065;49.894;10.358;2023-09-19T16:24:41;3.72;;;1.10;;
54157;SDS011;40065;49.894;10.358;2023-09-19T16:29:43;5.22;;;1.20;;
54157;SDS011;40065;49.894;10.358;2023-09-19T16:34:45;4.28;;;1.05;;
54157;SDS011;40065;49.894;10.358;2023-09-19T16:39:47;4.97;;;1.00;;
54157;SDS011;40065;49.894;10.358;2023-09-19T16:44:49;2.67;;;1.10;;
54157;SDS011;40065;49.894;10.358;2023-09-19T16:49:51;3.35;;;1.52;;
54157;SDS011;40065;49.894;10.358;2023-09-19T16:54:54;2.28;;;1.00;;
54157;SDS011;40065;49.894;10.358;2023-09-19T16:59:56;3.55;;;1.20;;
54157;SDS011;40065;49.894;10.358;2023-09-19T17:04:57;2.42;;;0.80;;
54157;SDS011;40065;49.894;10.358;2023-09-19T17:09:59;2.65;;;1.00;;
54157;SDS011;40065;49.894;10.358;2023-09-19T17:15:02;2.60;;;0.80;;
54157;SDS011;40065;49.894;10.358;2023-09-19T17:20:06;5.83;;;1.70;;
54157;SDS011;40065;49.894;10.358;2023-09-19T17:25:08;3.25;;;1.00;;
54157;SDS011;40065;49.894;10.358;2023-09-19T17:30:10;3.13;;;1.10;;
54157;SDS011;40065;49.894;10.358;2023-09-19T17:35:15;3.35;;;0.80;;
54157;SDS011;40065;49.894;10.358;2023-09-19T17:40:19;2.45;;;0.88;;
54157;SDS011;40065;49.894;10.358;2023-09-19T17:45:21;2.75;;;0.90;;
54157;SDS011;40065;49.894;10.358;2023-09-19T17:50:23;3.05;;;0.70;;
54157;SDS011;40065;49.894;10.358;2023-09-19T17:55:25;3.28;;;0.88;;
54157;SDS011;40065;49.894;10.358;2023-09-19T18:00:27;2.97;;;0.90;;
54157;SDS011;40065;49.894;10.358;2023-09-19T18:05:28;4.18;;;1.15;;
54157;SDS011;40065;49.894;10.358;2023-09-19T18:10:30;3.42;;;1.00;;
54157;SDS011;40065;49.894;10.358;2023-09-19T18:15:35;3.33;;;1.20;;
54157;SDS011;40065;49.894;10.358;2023-09-19T18:20:39;3.55;;;1.23;;
54157;SDS011;40065;49.894;10.358;2023-09-19T18:25:41;2.38;;;1.17;;
54157;SDS011;40065;49.894;10.358;2023-09-19T18:30:43;2.67;;;0.98;;
54157;SDS011;40065;49.894;10.358;2023-09-19T18:35:45;4.35;;;1.17;;
54157;SDS011;40065;49.894;10.358;2023-09-19T18:40:47;2.20;;;0.85;;
54157;SDS011;40065;49.894;10.358;2023-09-19T18:45:55;3.28;;;1.20;;
54157;SDS011;40065;49.894;10.358;2023-09-19T18:51:03;3.15;;;1.10;;
54157;SDS011;40065;49.894;10.358;2023-09-19T18:56:10;3.00;;;1.10;;
54157;SDS011;40065;49.894;10.358;2023-09-19T19:01:16;2.15;;;0.90;;
54157;SDS011;40065;49.894;10.358;2023-09-19T19:06:18;4.10;;;1.10;;
54157;SDS011;40065;49.894;10.358;2023-09-19T19:11:20;3.67;;;1.02;;
54157;SDS011;40065;49.894;10.358;2023-09-19T19:16:23;2.53;;;0.98;;
54157;SDS011;40065;49.894;10.358;2023-09-19T19:21:28;2.78;;;0.90;;
54157;SDS011;40065;49.894;10.358;2023-09-19T19:26:31;3.23;;;1.10;;
54157;SDS011;40065;49.894;10.358;2023-09-19T19:31:33;11.82;;;2.00;;
54157;SDS011;40065;49.894;10.358;2023-09-19T19:36:37;2.40;;;1.13;;
54157;SDS011;40065;49.894;10.358;2023-09-19T19:41:39;4.70;;;1.15;;
54157;SDS011;40065;49.894;10.358;2023-09-19T19:46:41;1.92;;;0.90;;
54157;SDS011;40065;49.894;10.358;2023-09-19T19:51:43;1.95;;;1.00;;
54157;SDS011;40065;49.894;10.358;2023-09-19T19:56:46;1.50;;;0.80;;
54157;SDS011;40065;49.894;10.358;2023-09-19T20:01:48;2.92;;;0.93;;
54157;SDS011;40065;49.894;10.358;2023-09-19T20:06:50;2.20;;;1.08;;
54157;SDS011;40065;49.894;10.358;2023-09-19T20:11:52;2.70;;;1.00;;
54157;SDS011;40065;49.894;10.358;2023-09-19T20:16:55;2.95;;;1.00;;
54157;SDS011;40065;49.894;10.358;2023-09-19T20:22:00;2.53;;;1.10;;
54157;SDS011;40065;49.894;10.358;2023-09-19T20:27:08;2.70;;;1.00;;
54157;SDS011;40065;49.894;10.358;2023-09-19T20:32:10;4.43;;;1.55;;
54157;SDS011;40065;49.894;10.358;2023-09-19T20:37:12;2.47;;;1.20;;
54157;SDS011;40065;49.894;10.358;2023-09-19T20:42:15;3.72;;;1.00;;
54157;SDS011;40065;49.894;10.358;2023-09-19T20:47:17;3.47;;;1.17;;
54157;SDS011;40065;49.894;10.358;2023-09-19T20:52:19;2.80;;;1.10;;
54157;SDS011;40065;49.894;10.358;2023-09-19T20:57:21;2.40;;;1.08;;
54157;SDS011;40065;49.894;10.358;2023-09-19T21:02:23;2.88;;;1.17;;
54157;SDS011;40065;49.894;10.358;2023-09-19T21:07:26;2.78;;;1.17;;
54157;SDS011;40065;49.894;10.358;2023-09-19T21:12:31;4.70;;;1.10;;
54157;SDS011;40065;49.894;10.358;2023-09-19T21:22:44;2.83;;;1.30;;
54157;SDS011;40065;49.894;10.358;2023-09-19T21:27:46;2.13;;;1.10;;
54157;SDS011;40065;49.894;10.358;2023-09-19T21:32:48;2.50;;;1.20;;
54157;SDS011;40065;49.894;10.358;2023-09-19T21:37:50;4.57;;;1.10;;
54157;SDS011;40065;49.894;10.358;2023-09-19T21:42:52;3.55;;;1.10;;
54157;SDS011;40065;49.894;10.358;2023-09-19T21:47:54;4.13;;;1.33;;
54157;SDS011;40065;49.894;10.358;2023-09-19T21:52:56;2.22;;;1.10;;
54157;SDS011;40065;49.894;10.358;2023-09-19T21:58:01;3.45;;;1.13;;
54157;SDS011;40065;49.894;10.358;2023-09-19T22:03:04;2.65;;;1.10;;
54157;SDS011;40065;49.894;10.358;2023-09-19T22:08:10;3.25;;;1.10;;
54157;SDS011;40065;49.894;10.358;2023-09-19T22:13:14;2.70;;;1.10;;
54157;SDS011;40065;49.894;10.358;2023-09-19T22:18:21;2.00;;;1.00;;
54157;SDS011;40065;49.894;10.358;2023-09-19T22:23:24;4.28;;;1.10;;
54157;SDS011;40065;49.894;10.358;2023-09-19T22:28:34;3.08;;;1.10;;
54157;SDS011;40065;49.894;10.358;2023-09-19T22:33:37;3.42;;;1.02;;
54157;SDS011;40065;49.894;10.358;2023-09-19T22:38:40;2.45;;;1.00;;
54157;SDS011;40065;49.894;10.358;2023-09-19T22:43:43;3.55;;;0.88;;
54157;SDS011;40065;49.894;10.358;2023-09-19T22:48:49;2.38;;;0.95;;
54157;SDS011;40065;49.894;10.358;2023-09-19T22:53:52;7.93;;;1.10;;
54157;SDS011;40065;49.894;10.358;2023-09-19T22:58:59;2.05;;;1.10;;
54157;SDS011;40065;49.894;10.358;2023-09-19T23:04:02;4.18;;;1.40;;
54157;SDS011;40065;49.894;10.358;2023-09-19T23:09:17;2.88;;;1.23;;
54157;SDS011;40065;49.894;10.358;2023-09-19T23:14:23;2.88;;;1.30;;
54157;SDS011;40065;49.894;10.358;2023-09-19T23:19:35;3.15;;;1.23;;
54157;SDS011;40065;49.894;10.358;2023-09-19T23:24:39;2.40;;;1.08;;
54157;SDS011;40065;49.894;10.358;2023-09-19T23:29:43;3.55;;;1.33;;
54157;SDS011;40065;49.894;10.358;2023-09-19T23:34:45;2.25;;;1.20;;
54157;SDS011;40065;49.894;10.358;2023-09-19T23:39:48;2.40;;;1.00;;
54157;SDS011;40065;49.894;10.358;2023-09-19T23:49:56;2.20;;;1.15;;
54157;SDS011;40065;49.894;10.358;2023-09-19T23:54:58;2.17;;;1.00;;
